OHKLS EFOU-EFOU

Flight info

Callsign OHKLS
Flight time 0h 33m
Altitude 1300
Route TASKI EFHL SIIKA
Aircraft C152/L-SDGIRUY/C

Departure

Time 2026-04-22 16:54
Airport Oulu Airport (EFOU)

Arrival

Time 2026-04-22 17:28
Airport Oulu Airport (EFOU)
Time Latitude Longitude Altitude Speed Heading
2026-04-22 16:44 64.93132 25.36443 45 ft 0 kts 336°
2026-04-22 16:49 64.93133 25.36441 45 ft 2 kts 305°
2026-04-22 16:50 64.93121 25.36426 45 ft 4 kts 174°
2026-04-22 16:50 64.93093 25.36353 46 ft 9 kts 236°
2026-04-22 16:50 64.93067 25.36255 46 ft 6 kts 243°
2026-04-22 16:50 64.93045 25.36165 46 ft 6 kts 213°
2026-04-22 16:51 64.93006 25.36248 45 ft 10 kts 122°
2026-04-22 16:51 64.92968 25.36393 46 ft 11 kts 121°
2026-04-22 16:51 64.92935 25.36507 47 ft 5 kts 146°
2026-04-22 16:51 64.92904 25.36522 47 ft 5 kts 185°
2026-04-22 16:52 64.92896 25.36517 47 ft 6 kts 207°
2026-04-22 16:52 64.92842 25.36438 47 ft 11 kts 213°
2026-04-22 16:52 64.92803 25.36334 47 ft 7 kts 269°
2026-04-22 16:52 64.92808 25.36272 48 ft 3 kts 296°
2026-04-22 16:53 64.92910 25.35844 59 ft 53 kts 300°
2026-04-22 16:53 64.93109 25.34995 173 ft 61 kts 319°
2026-04-22 16:53 64.93335 25.34138 326 ft 65 kts 310°
2026-04-22 16:53 64.93615 25.33455 542 ft 51 kts 343°
2026-04-22 16:54 64.94006 25.33348 647 ft 66 kts 359°
2026-04-22 16:54 64.94484 25.33404 778 ft 68 kts
2026-04-22 16:54 64.94937 25.33495 895 ft 68 kts
2026-04-22 16:54 64.95402 25.33560 905 ft 68 kts
2026-04-22 16:55 64.95826 25.33747 1028 ft 56 kts
2026-04-22 16:55 64.96255 25.33875 961 ft 65 kts
2026-04-22 16:55 64.96702 25.34050 943 ft 67 kts
2026-04-22 16:55 64.97157 25.34189 983 ft 62 kts
2026-04-22 16:56 64.97615 25.34193 904 ft 67 kts
2026-04-22 16:56 64.98100 25.34415 828 ft 70 kts
2026-04-22 16:56 64.98626 25.34388 639 ft 77 kts 358°
2026-04-22 16:56 64.99037 25.34295 914 ft 56 kts 356°
2026-04-22 16:57 64.99463 25.34117 878 ft 65 kts 355°
2026-04-22 16:57 64.99929 25.33921 915 ft 71 kts 355°
2026-04-22 16:57 65.00428 25.33757 955 ft 70 kts 354°
2026-04-22 16:57 65.00910 25.33548 1004 ft 71 kts 352°
2026-04-22 16:58 65.01227 25.33346 1040 ft 71 kts 348°
2026-04-22 16:58 65.01855 25.32869 1063 ft 73 kts 346°
2026-04-22 16:58 65.02326 25.32489 1073 ft 73 kts 351°
2026-04-22 16:58 65.02822 25.32219 1044 ft 75 kts 352°
2026-04-22 16:59 65.03335 25.32006 998 ft 76 kts 357°
2026-04-22 16:59 65.03849 25.31910 1031 ft 73 kts 358°
2026-04-22 16:59 65.04353 25.31809 1041 ft 72 kts 358°
2026-04-22 16:59 65.04852 25.31719 1063 ft 72 kts 357°
2026-04-22 17:00 65.05346 25.31601 1068 ft 72 kts
2026-04-22 17:00 65.06331 25.31728 1080 ft 72 kts
2026-04-22 17:00 65.06828 25.31756 1114 ft 69 kts 360°
2026-04-22 17:01 65.07323 25.31695 1094 ft 72 kts 358°
2026-04-22 17:01 65.07816 25.31557 1101 ft 72 kts 354°
2026-04-22 17:01 65.08325 25.31306 1057 ft 78 kts 349°
2026-04-22 17:01 65.08836 25.30893 1093 ft 77 kts 339°
2026-04-22 17:02 65.09305 25.30083 952 ft 86 kts 340°
2026-04-22 17:02 65.09785 25.29259 941 ft 86 kts 324°
2026-04-22 17:02 65.10183 25.28252 970 ft 84 kts 323°
2026-04-22 17:02 65.10554 25.27217 991 ft 83 kts 322°
2026-04-22 17:03 65.10911 25.26125 1020 ft 84 kts 319°
2026-04-22 17:03 65.11239 25.24981 1029 ft 84 kts 316°
2026-04-22 17:03 65.11551 25.23807 1042 ft 84 kts 315°
2026-04-22 17:03 65.11860 25.22629 1050 ft 85 kts 314°
2026-04-22 17:04 65.12145 25.21399 1056 ft 85 kts 314°
2026-04-22 17:04 65.12447 25.20198 1066 ft 85 kts 314°
2026-04-22 17:04 65.12756 25.19016 1068 ft 84 kts 316°
2026-04-22 17:04 65.13073 25.17869 1082 ft 84 kts 317°
2026-04-22 17:05 65.13384 25.16679 1095 ft 84 kts 315°
2026-04-22 17:05 65.13723 25.15548 1104 ft 84 kts 319°
2026-04-22 17:05 65.14048 25.14398 1132 ft 85 kts 314°
2026-04-22 17:05 65.14298 25.13077 1150 ft 91 kts 303°
2026-04-22 17:06 65.14393 25.11546 1133 ft 107 kts 274°
2026-04-22 17:06 65.14116 25.09773 1051 ft 113 kts 264°
2026-04-22 17:06 65.13818 25.07861 743 ft 125 kts 262°
2026-04-22 17:06 65.13552 25.06050 764 ft 114 kts 262°
2026-04-22 17:07 65.13257 25.04303 772 ft 110 kts 258°
2026-04-22 17:07 65.12863 25.02688 744 ft 119 kts 241°
2026-04-22 17:07 65.12175 25.01407 640 ft 131 kts 216°
2026-04-22 17:07 65.11389 25.00366 631 ft 131 kts 218°
2026-04-22 17:08 65.10662 24.99086 529 ft 127 kts 234°
2026-04-22 17:08 65.09991 24.97769 514 ft 130 kts 224°
2026-04-22 17:08 65.09194 24.96683 467 ft 131 kts 213°
2026-04-22 17:08 65.08426 24.95731 504 ft 124 kts 215°
2026-04-22 17:09 65.07742 24.94771 746 ft 100 kts 221°
2026-04-22 17:09 65.07102 24.93885 783 ft 117 kts 223°
2026-04-22 17:09 65.06423 24.92682 730 ft 123 kts 229°
2026-04-22 17:09 65.05718 24.91505 781 ft 122 kts 217°
2026-04-22 17:10 65.05013 24.90306 775 ft 118 kts 216°
2026-04-22 17:10 65.04261 24.89602 795 ft 126 kts 215°
2026-04-22 17:10 65.03556 24.88348 755 ft 124 kts 235°
2026-04-22 17:10 65.02920 24.86998 786 ft 124 kts 231°
2026-04-22 17:11 65.02249 24.85788 877 ft 120 kts 226°
2026-04-22 17:11 65.01612 24.84533 727 ft 121 kts 234°
2026-04-22 17:11 65.01037 24.83155 810 ft 114 kts 231°
2026-04-22 17:11 65.00389 24.81973 768 ft 121 kts 224°
2026-04-22 17:12 64.99741 24.80804 780 ft 116 kts 226°
2026-04-22 17:12 64.99148 24.79644 896 ft 108 kts 233°
2026-04-22 17:12 64.98720 24.78261 815 ft 104 kts 259°
2026-04-22 17:12 64.98311 24.76716 770 ft 113 kts 246°
2026-04-22 17:13 64.97823 24.75218 693 ft 115 kts 249°
2026-04-22 17:13 64.97406 24.73623 705 ft 114 kts 251°
2026-04-22 17:13 64.97014 24.72050 761 ft 110 kts 252°
2026-04-22 17:13 64.96502 24.70589 755 ft 122 kts 224°
2026-04-22 17:14 64.95703 24.71026 588 ft 122 kts 137°
2026-04-22 17:14 64.94872 24.71502 656 ft 121 kts 173°
2026-04-22 17:14 64.94069 24.71694 858 ft 116 kts 173°
2026-04-22 17:14 64.93213 24.71941 843 ft 128 kts 171°
2026-04-22 17:15 64.92645 24.72138 927 ft 124 kts 170°
2026-04-22 17:15 64.91473 24.72704 902 ft 131 kts 159°
2026-04-22 17:15 64.90633 24.73569 865 ft 129 kts 142°
2026-04-22 17:15 64.89865 24.74593 851 ft 131 kts 146°
2026-04-22 17:16 64.89068 24.75585 855 ft 129 kts 143°
2026-04-22 17:16 64.88314 24.76724 856 ft 127 kts 134°
2026-04-22 17:16 64.87656 24.78029 916 ft 120 kts 130°
2026-04-22 17:16 64.86991 24.79241 974 ft 121 kts 133°
2026-04-22 17:17 64.86330 24.80455 1035 ft 116 kts 130°
2026-04-22 17:17 64.85642 24.81585 1013 ft 125 kts 139°
2026-04-22 17:17 64.84887 24.82546 1064 ft 122 kts 141°
2026-04-22 17:17 64.84281 24.83785 1152 ft 113 kts 116°
2026-04-22 17:18 64.83799 24.85324 1041 ft 123 kts 116°
2026-04-22 17:18 64.83327 24.86893 980 ft 113 kts 106°
2026-04-22 17:18 64.82962 24.88483 971 ft 108 kts 97°
2026-04-22 17:18 64.82760 24.90039 937 ft 94 kts 69°
2026-04-22 17:19 64.82708 24.93185 970 ft 99 kts 88°
2026-04-22 17:19 64.82503 24.96368 945 ft 96 kts 70°
2026-04-22 17:20 64.82585 24.99474 896 ft 98 kts 70°
2026-04-22 17:20 64.82589 25.02681 931 ft 101 kts 74°
2026-04-22 17:21 64.82696 25.04140 976 ft 89 kts 59°
2026-04-22 17:21 64.83043 25.06950 994 ft 78 kts 56°
2026-04-22 17:22 64.83465 25.09271 1075 ft 78 kts 44°
2026-04-22 17:22 64.83782 25.10298 1060 ft 77 kts 37°
2026-04-22 17:22 64.84478 25.12203 1102 ft 79 kts 47°
2026-04-22 17:23 64.84809 25.13183 1117 ft 74 kts 31°
2026-04-22 17:23 64.85567 25.14936 1086 ft 77 kts 36°
2026-04-22 17:23 64.85835 25.16100 1024 ft 83 kts 48°
2026-04-22 17:24 64.86091 25.17271 1003 ft 80 kts 51°
2026-04-22 17:24 64.86289 25.18528 969 ft 86 kts 57°
2026-04-22 17:24 64.86491 25.19797 957 ft 79 kts 52°
2026-04-22 17:24 64.86692 25.21019 914 ft 82 kts 57°
2026-04-22 17:25 64.86781 25.22351 951 ft 89 kts 66°
2026-04-22 17:25 64.86878 25.23784 998 ft 90 kts 63°
2026-04-22 17:25 64.87025 25.25230 1047 ft 89 kts 58°
2026-04-22 17:25 64.87259 25.26556 1051 ft 89 kts 53°
2026-04-22 17:26 64.87470 25.27912 1085 ft 89 kts 56°
2026-04-22 17:26 64.87692 25.29255 1115 ft 89 kts 54°
2026-04-22 17:26 64.87942 25.30565 1149 ft 87 kts 50°
2026-04-22 17:26 64.88223 25.31828 1184 ft 87 kts 49°
2026-04-22 17:27 64.88482 25.33134 1188 ft 88 kts 54°
2026-04-22 17:27 64.88673 25.34527 1217 ft 88 kts 56°
2026-04-22 17:27 64.88920 25.35616 1154 ft 66 kts 40°
2026-04-22 17:27 64.89228 25.36371 1157 ft 58 kts 34°
2026-04-22 17:28 64.89461 25.36977 1169 ft 38 kts 34°
2026-04-22 17:28 64.89629 25.37422 1054 ft 42 kts 26°
2026-04-22 17:28 64.89881 25.37890 1003 ft 52 kts 36°
2026-04-22 17:28 64.90157 25.38550 981 ft 63 kts 28°
2026-04-22 17:29 64.90501 25.39169 828 ft 64 kts 32°
2026-04-22 17:29 64.90879 25.39794 670 ft 68 kts 20°
2026-04-22 17:29 64.91347 25.40050 522 ft 71 kts
2026-04-22 17:29 64.91793 25.39767 355 ft 71 kts 330°
2026-04-22 17:30 64.92109 25.38895 220 ft 74 kts 316°
2026-04-22 17:30 64.92398 25.37817 119 ft 77 kts 314°
2026-04-22 17:30 64.92654 25.36814 67 ft 74 kts 313°
2026-04-22 17:30 64.92942 25.35708 94 ft 83 kts 310°
2026-04-22 17:31 64.93219 25.34593 183 ft 79 kts 314°
2026-04-22 17:31 64.93480 25.33493 352 ft 76 kts 309°
2026-04-22 17:31 64.93602 25.32358 588 ft 77 kts 279°
2026-04-22 17:31 64.93256 25.31251 793 ft 91 kts 229°
2026-04-22 17:32 64.92613 25.30933 987 ft 101 kts 167°
2026-04-22 17:32 64.92044 25.31853 995 ft 107 kts 123°
2026-04-22 17:32 64.91545 25.33210 923 ft 112 kts 115°
2026-04-22 17:32 64.91132 25.34750 916 ft 107 kts 106°
2026-04-22 17:33 64.90923 25.35805 850 ft 106 kts 97°
2026-04-22 17:33 64.90578 25.37915 760 ft 91 kts 90°
2026-04-22 17:33 64.90642 25.39218 544 ft 77 kts 46°
2026-04-22 17:33 64.91041 25.39886 391 ft 80 kts
2026-04-22 17:34 64.91552 25.39791 346 ft 73 kts 343°
2026-04-22 17:34 64.91947 25.39145 239 ft 70 kts 327°
2026-04-22 17:34 64.92268 25.38298 111 ft 70 kts 317°
2026-04-22 17:34 64.92509 25.37387 43 ft 59 kts 314°
2026-04-22 17:35 64.92684 25.36768 46 ft 36 kts 311°
2026-04-22 17:35 64.92778 25.36458 47 ft 11 kts 315°
2026-04-22 17:35 64.92841 25.36439 47 ft 11 kts 27°
2026-04-22 17:35 64.92933 25.36501 47 ft 12 kts 329°
2026-04-22 17:36 64.93023 25.36234 45 ft 19 kts 351°